CheckWX is a tool to help pilots better visualize weather data.  It is not intended as a substitute for an official pre-flight weather briefing.

11:44:41 UTC

KHYI METAR
San Marcos Regional Airport
Austin, Texas, USA
Current

49 mins ago

KHYI 251056Z AUTO 26003KT 10SM CLR 06/04 A2983 RMK AO2 SLP097 T00560039
Observed
Feb-25 @ 10:56 UTC
Wind
  • 260° at 3 KTS
Visibility
10 SM
Flight Rules
VFR
Cloud Levels
  • Clear skies
Temperature
C / 43°F
Dewpoint
C / 39°F
Humidity
87%
Altimeter
29.83" Hg
Pressure
1010.12 hPa
Previous

2 hours ago

KHYI 250956Z AUTO 30004KT 10SM CLR 06/04 A2982 RMK AO2 SLP091 T00560039
Observed
Feb-25 @ 09:56 UTC
Wind
  • 300° at 4 KTS
Visibility
10 SM
Flight Rules
VFR
Cloud Levels
  • Clear skies
Temperature
C / 43°F
Dewpoint
C / 39°F
Humidity
87%
Altimeter
29.82" Hg
Pressure
1009.82 hPa
Previous

3 hours ago

KHYI 250856Z AUTO 29003KT 10SM CLR 06/04 A2982 RMK AO2 SLP091 T00610044 58012
Observed
Feb-25 @ 08:56 UTC
Wind
  • 290° at 3 KTS
Visibility
10 SM
Flight Rules
VFR
Cloud Levels
  • Clear skies
Temperature
C / 43°F
Dewpoint
C / 39°F
Humidity
87%
Altimeter
29.82" Hg
Pressure
1009.82 hPa